Time;durP1;ratioP1;P1;durP2;ratioP2;P2;SDS_P1;SDS_P2;PMS_P1;PMS_P2;Temp;Humidity;BMP_temperature;BMP_pressure;BME280_temperature;BME280_humidity;BME280_pressure;Samples;Min_cycle;Max_cycle;Signal;HPM_P1;HPM_P2
2021/08/02 00:00:22;;;;;;;;;;;;;;;28.00;40.92;96998.44;5027031;28;1622;-54
2021/08/02 00:02:51;;;;;;;;;;;;;;;28.08;40.51;97003.81;5020217;28;1339;-52
2021/08/02 00:05:17;;;;;;;;;;;;;;;28.05;40.96;96997.00;5019613;28;1232;-53
2021/08/02 00:07:42;;;;;;;;;;;;;;;28.11;40.67;96995.56;5027582;28;1650;-53
2021/08/02 00:10:08;;;;;;;;;;;;;;;28.07;40.83;96994.19;5026662;28;1342;-54
2021/08/02 00:12:34;;;;;;;;;;;;;;;28.03;41.02;96996.31;5026047;28;1870;-54
2021/08/02 00:14:59;;;;;;;;;;;;;;;28.13;40.54;96998.91;5027862;28;1906;-54
2021/08/02 00:17:25;;;;;;;;;;;;;;;28.01;40.72;97000.94;5026792;28;1408;-52
2021/08/02 00:19:50;;;;;;;;;;;;;;;28.09;40.88;96998.34;5023574;28;1543;-54
2021/08/02 00:22:15;;;;;;;;;;;;;;;28.09;40.50;96998.34;5028115;28;1354;-53
2021/08/02 00:24:40;;;;;;;;;;;;;;;28.15;40.55;96996.09;5019948;28;1359;-52
2021/08/02 00:27:07;;;;;;;;;;;;;;;28.15;40.71;96996.09;5028908;28;1558;-52
2021/08/02 00:29:32;;;;;;;;;;;;;;;28.26;40.28;96987.91;5022414;28;1197;-52
2021/08/02 00:31:59;;;;;;;;;;;;;;;28.24;40.33;96995.19;5022340;28;1284;-52
2021/08/02 00:34:24;;;;;;;;;;;;;;;28.23;40.21;96988.22;5028097;28;1906;-53
2021/08/02 00:36:59;;;;;;;;;;;;;;;28.21;40.37;96998.16;5029180;28;1257;-52
2021/08/02 00:39:37;;;;;;;;;;;;;;;28.09;40.43;96993.06;5028332;28;1594;-53
2021/08/02 00:42:18;;;;;;;;;;;;;;;28.07;40.73;96992.38;5027794;28;1780;-52
2021/08/02 00:44:49;;;;;;;;;;;;;;;28.08;40.61;96990.56;5023438;28;1171;-54
2021/08/02 00:47:18;;;;;;;;;;;;;;;27.95;41.03;96996.22;5025651;28;1378;-52
2021/08/02 00:49:51;;;;;;;;;;;;;;;28.08;40.86;96994.03;5028017;28;1614;-53
2021/08/02 00:52:17;;;;;;;;;;;;;;;28.01;40.85;97000.09;5048741;23;1816;-52
2021/08/02 00:54:42;;;;;;;;;;;;;;;28.10;40.42;97000.03;5028406;28;1907;-54
2021/08/02 00:57:07;;;;;;;;;;;;;;;28.09;40.59;97001.00;5038107;28;1542;-54
2021/08/02 00:59:33;;;;;;;;;;;;;;;28.16;40.66;96998.59;4995832;28;1571;-52
2021/08/02 01:01:58;;;;;;;;;;;;;;;28.36;39.85;97001.97;5000867;28;1692;-55
2021/08/02 01:04:24;;;;;;;;;;;;;;;28.24;40.15;97009.28;5027796;28;1200;-55
2021/08/02 01:06:50;;;;;;;;;;;;;;;28.16;40.44;97008.38;5030099;28;1270;-51
2021/08/02 01:09:16;;;;;;;;;;;;;;;28.29;40.25;96999.09;5045484;28;1704;-54
2021/08/02 01:11:41;;;;;;;;;;;;;;;28.09;40.38;97008.97;5043517;28;1806;-54
2021/08/02 01:14:06;;;;;;;;;;;;;;;28.10;40.54;97005.31;5044409;28;1902;-54
2021/08/02 01:16:32;;;;;;;;;;;;;;;28.07;40.61;97010.09;5046539;28;1160;-53
2021/08/02 01:18:58;;;;;;;;;;;;;;;28.07;40.70;97010.94;5029786;28;1157;-55
2021/08/02 01:21:23;;;;;;;;;;;;;;;28.19;40.19;97000.94;5031508;28;1516;-54
2021/08/02 01:23:48;;;;;;;;;;;;;;;28.11;40.59;97003.50;5030155;28;1625;-52
2021/08/02 01:26:32;;;;;;;;;;;;;;;28.24;40.37;97000.50;5030435;28;1503;-54
2021/08/02 01:29:16;;;;;;;;;;;;;;;28.14;40.51;97005.88;5031519;28;1194;-54
2021/08/02 01:31:41;;;;;;;;;;;;;;;28.04;40.72;97005.09;5031396;28;1290;-55
2021/08/02 01:34:06;;;;;;;;;;;;;;;28.01;40.83;97008.03;5030660;28;1993;-54
2021/08/02 01:36:31;;;;;;;;;;;;;;;28.01;40.50;97021.31;5030625;28;1205;-54
2021/08/02 01:38:57;;;;;;;;;;;;;;;28.08;40.40;97009.94;5028861;28;1239;-55
2021/08/02 01:41:22;;;;;;;;;;;;;;;27.98;40.73;97014.50;5030529;28;1587;-54
2021/08/02 01:43:47;;;;;;;;;;;;;;;28.19;40.18;97018.66;5028380;28;1321;-53
2021/08/02 01:46:12;;;;;;;;;;;;;;;28.00;40.83;97016.97;5028872;28;1340;-55
2021/08/02 01:48:56;;;;;;;;;;;;;;;28.04;40.60;97010.38;5029737;28;1636;-54
2021/08/02 01:51:21;;;;;;;;;;;;;;;28.05;40.62;97020.88;5029756;28;1251;-52
2021/08/02 01:53:55;;;;;;;;;;;;;;;27.98;40.87;97021.59;5030523;28;1952;-54
2021/08/02 01:56:21;;;;;;;;;;;;;;;28.03;40.79;97022.81;5028285;28;1590;-56
2021/08/02 01:59:05;;;;;;;;;;;;;;;28.14;40.45;97020.94;5029287;28;1021;-53
2021/08/02 02:01:30;;;;;;;;;;;;;;;27.96;40.82;97029.69;5029875;28;1358;-54
2021/08/02 02:03:56;;;;;;;;;;;;;;;28.16;40.49;97025.09;5045391;28;1285;-55
2021/08/02 02:06:23;;;;;;;;;;;;;;;28.09;40.64;97019.56;5025593;28;1687;-55
2021/08/02 02:09:01;;;;;;;;;;;;;;;28.03;40.52;97019.31;5040305;28;1395;-54
2021/08/02 02:11:27;;;;;;;;;;;;;;;27.97;40.62;97023.44;5044222;28;1654;-54
2021/08/02 02:13:53;;;;;;;;;;;;;;;28.06;40.48;97027.84;5028520;28;1975;-54
2021/08/02 02:16:18;;;;;;;;;;;;;;;28.08;40.48;97031.16;5030157;28;1314;-54
2021/08/02 02:18:49;;;;;;;;;;;;;;;28.08;40.37;97039.13;5029323;28;1182;-55
2021/08/02 02:21:17;;;;;;;;;;;;;;;27.99;40.73;97040.00;5029588;28;1540;-54
2021/08/02 02:23:42;;;;;;;;;;;;;;;27.96;40.60;97042.09;5028168;28;1301;-52
2021/08/02 02:26:08;;;;;;;;;;;;;;;27.96;40.67;97037.63;5026794;28;1578;-53
2021/08/02 02:28:34;;;;;;;;;;;;;;;28.09;40.48;97037.28;5044474;28;1191;-54
2021/08/02 02:30:59;;;;;;;;;;;;;;;28.24;40.11;97040.28;5042764;28;1437;-54
2021/08/02 02:33:24;;;;;;;;;;;;;;;28.04;40.78;97053.66;5044198;28;1188;-53
2021/08/02 02:35:49;;;;;;;;;;;;;;;28.07;40.56;97048.06;5025742;28;1965;-52
2021/08/02 02:38:15;;;;;;;;;;;;;;;28.08;40.31;97052.38;5029299;28;1129;-53
2021/08/02 02:40:43;;;;;;;;;;;;;;;28.07;40.30;97047.22;5028829;28;1618;-52
2021/08/02 02:43:08;;;;;;;;;;;;;;;28.05;40.25;97050.03;5024250;28;1545;-52
2021/08/02 02:45:34;;;;;;;;;;;;;;;27.99;40.57;97061.22;5029788;28;1181;-54
2021/08/02 02:47:59;;;;;;;;;;;;;;;28.24;40.02;97058.84;5042881;28;1551;-52
2021/08/02 02:50:24;;;;;;;;;;;;;;;28.00;40.59;97060.22;5040280;28;1621;-55
2021/08/02 02:52:49;;;;;;;;;;;;;;;28.18;40.23;97059.41;5043575;28;1381;-54
2021/08/02 02:55:14;;;;;;;;;;;;;;;28.08;40.64;97057.66;5030431;28;1910;-55
2021/08/02 02:57:39;;;;;;;;;;;;;;;28.02;40.38;97068.84;5028626;28;1868;-53
2021/08/02 03:00:06;;;;;;;;;;;;;;;28.00;40.78;97065.53;5026127;28;1554;-54
2021/08/02 03:02:31;;;;;;;;;;;;;;;28.03;40.56;97075.00;5029204;28;1297;-54
2021/08/02 03:04:56;;;;;;;;;;;;;;;28.03;40.50;97073.16;5027946;28;1455;-54
2021/08/02 03:07:22;;;;;;;;;;;;;;;27.95;40.90;97070.44;5044809;28;1510;-52
2021/08/02 03:09:47;;;;;;;;;;;;;;;28.00;40.57;97068.19;5028349;28;1193;-55
2021/08/02 03:12:12;;;;;;;;;;;;;;;28.00;40.50;97070.81;5028629;28;1563;-54
2021/08/02 03:14:38;;;;;;;;;;;;;;;28.01;40.53;97067.19;5026674;28;1894;-55
2021/08/02 03:17:07;;;;;;;;;;;;;;;28.02;40.39;97070.69;5027629;28;1152;-52
2021/08/02 03:19:32;;;;;;;;;;;;;;;28.06;40.42;97075.53;5025126;28;1610;-55
2021/08/02 03:21:58;;;;;;;;;;;;;;;28.10;40.54;97084.03;5023288;28;1280;-52
2021/08/02 03:24:37;;;;;;;;;;;;;;;28.01;40.42;97075.16;5026924;28;1253;-52
2021/08/02 03:27:13;;;;;;;;;;;;;;;28.10;40.49;97079.56;5043772;28;1604;-53
2021/08/02 03:29:39;;;;;;;;;;;;;;;28.00;40.53;97077.94;5041632;28;1377;-54
2021/08/02 03:32:11;;;;;;;;;;;;;;;27.98;40.55;97080.75;5044873;28;1315;-54
2021/08/02 03:34:36;;;;;;;;;;;;;;;28.09;40.37;97069.94;5026646;28;1898;-53
2021/08/02 03:37:03;;;;;;;;;;;;;;;28.02;40.47;97081.28;5045258;28;1176;-52
2021/08/02 03:39:28;;;;;;;;;;;;;;;28.01;40.52;97083.09;5025700;28;1955;-52
2021/08/02 03:41:53;;;;;;;;;;;;;;;27.99;40.62;97079.75;5041559;28;1607;-54
2021/08/02 03:44:18;;;;;;;;;;;;;;;27.98;40.62;97090.53;5028381;28;1181;-54
2021/08/02 03:46:44;;;;;;;;;;;;;;;27.96;40.66;97090.66;5043964;28;1834;-53
2021/08/02 03:49:09;;;;;;;;;;;;;;;28.01;40.31;97087.56;5027875;28;1610;-54
2021/08/02 03:51:35;;;;;;;;;;;;;;;27.91;40.82;97106.19;5026401;28;1365;-54
2021/08/02 03:54:00;;;;;;;;;;;;;;;28.04;40.49;97098.72;5029017;28;1902;-54
2021/08/02 03:56:25;;;;;;;;;;;;;;;27.98;40.65;97099.31;5027974;28;1582;-54
2021/08/02 03:58:50;;;;;;;;;;;;;;;27.98;40.82;97111.72;5024079;28;1590;-54
2021/08/02 04:01:16;;;;;;;;;;;;;;;27.98;40.69;97120.50;5030083;28;1382;-53
2021/08/02 04:03:41;;;;;;;;;;;;;;;28.01;40.54;97109.59;5031797;28;1118;-53
2021/08/02 04:06:07;;;;;;;;;;;;;;;28.02;40.50;97107.78;5030811;28;1244;-54
2021/08/02 04:08:32;;;;;;;;;;;;;;;28.00;40.58;97113.25;5032691;28;1662;-53
2021/08/02 04:10:58;;;;;;;;;;;;;;;28.01;40.58;97114.91;5031836;28;1530;-52
2021/08/02 04:13:23;;;;;;;;;;;;;;;28.03;40.66;97115.59;5031967;28;1018;-52
2021/08/02 04:15:48;;;;;;;;;;;;;;;27.99;40.47;97119.53;5030242;28;1976;-51
2021/08/02 04:18:13;;;;;;;;;;;;;;;27.97;40.73;97121.50;5032674;28;1185;-55
2021/08/02 04:20:39;;;;;;;;;;;;;;;28.17;40.36;97118.75;5029821;28;1696;-53
2021/08/02 04:23:04;;;;;;;;;;;;;;;28.18;40.36;97120.41;5029077;28;1806;-54
2021/08/02 04:25:29;;;;;;;;;;;;;;;28.04;40.45;97125.22;5025675;28;1597;-54
2021/08/02 04:27:55;;;;;;;;;;;;;;;28.10;40.51;97121.13;5032047;28;1007;-52
2021/08/02 04:30:20;;;;;;;;;;;;;;;28.07;40.62;97130.22;5032852;28;1192;-52
2021/08/02 04:32:45;;;;;;;;;;;;;;;28.29;39.96;97133.47;5031803;28;1299;-54
2021/08/02 04:35:11;;;;;;;;;;;;;;;28.16;40.46;97132.97;5029238;28;2025;-54
2021/08/02 04:37:36;;;;;;;;;;;;;;;28.12;40.49;97142.19;5032896;28;1180;-53
2021/08/02 04:40:01;;;;;;;;;;;;;;;28.07;40.43;97146.13;5032597;28;1216;-52
2021/08/02 04:42:26;;;;;;;;;;;;;;;28.22;40.46;97137.69;5028869;28;1615;-53
2021/08/02 04:44:51;;;;;;;;;;;;;;;28.15;40.60;97149.88;5032450;28;1109;-54
2021/08/02 04:47:17;;;;;;;;;;;;;;;28.02;40.51;97148.38;5029421;28;1492;-55
2021/08/02 04:49:42;;;;;;;;;;;;;;;28.14;40.58;97150.84;5032188;28;1189;-54
2021/08/02 04:52:07;;;;;;;;;;;;;;;28.22;40.31;97140.34;5026486;28;1637;-53
2021/08/02 04:54:32;;;;;;;;;;;;;;;28.17;40.56;97146.06;5032402;28;1902;-54
2021/08/02 04:56:57;;;;;;;;;;;;;;;27.98;40.91;97148.84;5027251;28;2073;-54
2021/08/02 04:59:23;;;;;;;;;;;;;;;27.98;40.77;97157.63;5030426;28;1332;-53
2021/08/02 05:01:48;;;;;;;;;;;;;;;28.20;40.46;97158.19;5031038;28;1427;-55
2021/08/02 05:04:13;;;;;;;;;;;;;;;28.06;40.46;97160.38;5030960;28;1200;-55
2021/08/02 05:06:38;;;;;;;;;;;;;;;28.16;40.35;97167.44;5030312;28;1534;-54
2021/08/02 05:09:03;;;;;;;;;;;;;;;28.14;40.20;97153.50;5030219;28;1196;-54
2021/08/02 05:11:29;;;;;;;;;;;;;;;28.10;40.24;97167.03;5026599;28;1659;-55
2021/08/02 05:13:54;;;;;;;;;;;;;;;28.17;40.33;97167.28;5029235;28;1910;-53
2021/08/02 05:16:19;;;;;;;;;;;;;;;28.02;40.91;97166.09;5031745;28;1251;-55
2021/08/02 05:18:44;;;;;;;;;;;;;;;28.22;40.41;97161.56;5042818;28;1157;-54
2021/08/02 05:21:10;;;;;;;;;;;;;;;28.03;40.60;97173.91;5028762;28;1607;-54
2021/08/02 05:23:35;;;;;;;;;;;;;;;28.04;40.59;97165.00;5027957;28;1208;-54
2021/08/02 05:26:00;;;;;;;;;;;;;;;28.01;40.93;97178.53;5028787;28;1575;-54
2021/08/02 05:28:26;;;;;;;;;;;;;;;28.04;40.56;97177.38;5028720;28;1078;-54
2021/08/02 05:30:51;;;;;;;;;;;;;;;27.84;40.97;97173.97;5028112;28;1156;-55
2021/08/02 05:33:16;;;;;;;;;;;;;;;27.92;41.04;97182.03;5029280;28;1342;-55
2021/08/02 05:35:41;;;;;;;;;;;;;;;27.93;40.83;97173.13;5027699;28;1902;-54
2021/08/02 05:38:06;;;;;;;;;;;;;;;27.89;41.23;97178.88;5028362;28;1208;-56
2021/08/02 05:40:32;;;;;;;;;;;;;;;27.83;41.20;97185.56;5027642;28;1685;-53
2021/08/02 05:42:57;;;;;;;;;;;;;;;27.84;41.11;97181.09;5028528;28;1298;-53
2021/08/02 05:45:22;;;;;;;;;;;;;;;27.91;41.09;97190.16;5030752;28;1171;-54
2021/08/02 05:47:47;;;;;;;;;;;;;;;27.87;41.11;97188.75;5027383;28;1195;-54
2021/08/02 05:50:12;;;;;;;;;;;;;;;27.84;41.17;97189.03;5028343;28;1677;-53
2021/08/02 05:52:38;;;;;;;;;;;;;;;27.90;41.23;97189.31;5027130;28;1293;-56
2021/08/02 05:55:03;;;;;;;;;;;;;;;27.85;41.38;97193.38;5029163;28;1969;-54
2021/08/02 05:57:28;;;;;;;;;;;;;;;27.86;40.97;97195.03;5027144;28;1653;-54
2021/08/02 05:59:54;;;;;;;;;;;;;;;27.82;41.31;97186.56;5027987;28;1343;-53
2021/08/02 06:02:19;;;;;;;;;;;;;;;27.76;41.23;97193.25;5029151;28;1307;-53
2021/08/02 06:04:44;;;;;;;;;;;;;;;27.95;40.94;97197.66;5027970;28;1611;-55
2021/08/02 06:07:09;;;;;;;;;;;;;;;27.80;41.48;97193.78;5027584;28;1219;-55
2021/08/02 06:09:35;;;;;;;;;;;;;;;27.76;41.34;97200.38;5027606;28;1168;-55
2021/08/02 06:12:01;;;;;;;;;;;;;;;27.94;41.02;97203.09;5026477;28;1575;-54
2021/08/02 06:14:29;;;;;;;;;;;;;;;27.84;41.07;97207.59;5029423;28;1910;-55
2021/08/02 06:16:54;;;;;;;;;;;;;;;27.89;41.13;97197.41;5027578;28;1030;-55
2021/08/02 06:19:19;;;;;;;;;;;;;;;27.83;41.20;97205.94;5028803;28;1607;-55
2021/08/02 06:21:44;;;;;;;;;;;;;;;27.85;41.29;97201.31;5026509;28;1359;-54
2021/08/02 06:24:09;;;;;;;;;;;;;;;27.96;40.96;97206.44;5028485;28;1201;-54
2021/08/02 06:26:36;;;;;;;;;;;;;;;27.83;41.40;97208.59;5027028;28;1534;-52
2021/08/02 06:29:02;;;;;;;;;;;;;;;27.93;41.09;97206.72;5026356;28;1264;-54
2021/08/02 06:31:27;;;;;;;;;;;;;;;27.92;41.02;97205.06;5028180;28;1379;-54
2021/08/02 06:33:52;;;;;;;;;;;;;;;27.98;41.11;97207.97;5025266;28;1906;-55
2021/08/02 06:36:18;;;;;;;;;;;;;;;27.82;41.21;97218.34;5026786;28;1840;-53
2021/08/02 06:38:43;;;;;;;;;;;;;;;27.87;41.16;97215.25;5025606;28;1543;-55
2021/08/02 06:41:08;;;;;;;;;;;;;;;27.85;41.05;97218.06;5027686;28;1708;-55
2021/08/02 06:43:33;;;;;;;;;;;;;;;27.95;41.21;97228.63;5027055;28;1132;-55
2021/08/02 06:45:59;;;;;;;;;;;;;;;27.89;41.16;97221.25;5026242;28;1180;-56
2021/08/02 06:48:24;;;;;;;;;;;;;;;27.91;41.14;97225.44;5026180;28;974;-54
2021/08/02 06:50:49;;;;;;;;;;;;;;;27.94;40.95;97221.66;5024307;28;1587;-55
2021/08/02 06:53:14;;;;;;;;;;;;;;;27.83;41.31;97220.00;5027504;28;1294;-54
2021/08/02 06:55:40;;;;;;;;;;;;;;;27.90;41.09;97230.88;5024582;28;1906;-54
2021/08/02 06:58:05;;;;;;;;;;;;;;;28.03;40.85;97228.72;5028378;28;1236;-54
2021/08/02 07:00:30;;;;;;;;;;;;;;;27.91;41.14;97227.25;5027014;28;1141;-54
2021/08/02 07:02:58;;;;;;;;;;;;;;;27.85;41.18;97231.31;5028943;28;1374;-54
2021/08/02 07:05:24;;;;;;;;;;;;;;;27.85;41.44;97233.94;5028610;28;1566;-54
2021/08/02 07:07:49;;;;;;;;;;;;;;;27.92;41.06;97235.06;5029639;28;1255;-54
2021/08/02 07:10:15;;;;;;;;;;;;;;;27.88;41.29;97233.66;5029547;28;1480;-53
2021/08/02 07:12:40;;;;;;;;;;;;;;;27.94;40.95;97230.44;5029242;28;1619;-54
2021/08/02 07:15:05;;;;;;;;;;;;;;;27.93;41.21;97230.59;5025415;28;1910;-54
2021/08/02 07:17:31;;;;;;;;;;;;;;;27.96;40.95;97225.81;5029130;28;1235;-54
2021/08/02 07:19:56;;;;;;;;;;;;;;;27.97;41.12;97235.47;5027929;28;1456;-55
2021/08/02 07:22:21;;;;;;;;;;;;;;;27.98;40.92;97239.78;5029549;28;1277;-55
2021/08/02 07:24:46;;;;;;;;;;;;;;;27.98;40.93;97237.13;5027579;28;1606;-54
2021/08/02 07:27:11;;;;;;;;;;;;;;;27.99;41.14;97236.16;5028562;28;1543;-54
2021/08/02 07:29:37;;;;;;;;;;;;;;;28.08;40.74;97242.41;5029973;28;1102;-54
2021/08/02 07:32:02;;;;;;;;;;;;;;;28.13;40.56;97236.69;5028219;28;1417;-54
2021/08/02 07:34:27;;;;;;;;;;;;;;;27.97;40.87;97237.28;5029873;28;1965;-54
2021/08/02 07:36:52;;;;;;;;;;;;;;;28.06;40.70;97234.59;5032026;28;1602;-54
2021/08/02 07:39:17;;;;;;;;;;;;;;;28.04;40.83;97228.63;5033926;28;1192;-54
2021/08/02 07:41:43;;;;;;;;;;;;;;;28.22;40.68;97235.81;5031342;28;1574;-54
2021/08/02 07:44:08;;;;;;;;;;;;;;;28.18;40.46;97239.72;5033139;28;1283;-53
2021/08/02 07:46:33;;;;;;;;;;;;;;;28.25;40.53;97241.63;5032447;28;1473;-54
2021/08/02 07:48:58;;;;;;;;;;;;;;;28.28;40.38;97243.16;5026926;28;1571;-55
2021/08/02 07:51:24;;;;;;;;;;;;;;;28.29;40.30;97232.47;5030263;28;1346;-54
2021/08/02 07:53:49;;;;;;;;;;;;;;;28.41;39.99;97240.22;5033032;28;1973;-55
2021/08/02 07:56:14;;;;;;;;;;;;;;;28.13;40.71;97232.22;5029704;28;1547;-54
2021/08/02 07:58:39;;;;;;;;;;;;;;;28.09;40.66;97234.31;5030983;28;1789;-53
2021/08/02 08:01:04;;;;;;;;;;;;;;;28.28;40.45;97232.53;5032506;28;1298;-54
2021/08/02 08:06:13;;;;;;;;;;;;;;;28.03;40.94;97240.16;5028267;28;2059;-55
2021/08/02 08:08:38;;;;;;;;;;;;;;;28.02;40.90;97232.38;5033230;28;1248;-54
2021/08/02 08:11:04;;;;;;;;;;;;;;;28.04;40.71;97230.41;5031550;28;1610;-53
2021/08/02 08:13:29;;;;;;;;;;;;;;;28.28;40.33;97229.91;5030668;28;1392;-55
2021/08/02 08:15:54;;;;;;;;;;;;;;;28.35;40.10;97231.84;5032434;28;1965;-55
2021/08/02 08:18:19;;;;;;;;;;;;;;;28.20;40.58;97238.59;5030837;28;1524;-54
2021/08/02 08:20:45;;;;;;;;;;;;;;;28.51;39.91;97239.19;5031790;28;1118;-54
2021/08/02 08:23:10;;;;;;;;;;;;;;;28.21;40.79;97234.13;5030346;28;1579;-54
2021/08/02 08:25:35;;;;;;;;;;;;;;;28.42;40.04;97242.72;5030342;28;1554;-55
2021/08/02 08:28:01;;;;;;;;;;;;;;;28.35;40.07;97234.50;5031026;28;1484;-54
2021/08/02 08:30:27;;;;;;;;;;;;;;;28.17;40.56;97238.03;5031756;28;1196;-54
2021/08/02 08:32:52;;;;;;;;;;;;;;;28.22;40.49;97235.81;5029862;28;1294;-54
2021/08/02 08:35:17;;;;;;;;;;;;;;;28.21;40.49;97242.09;5028317;28;1902;-54
2021/08/02 08:37:44;;;;;;;;;;;;;;;28.18;40.59;97245.84;5026611;28;1188;-55
2021/08/02 08:40:09;;;;;;;;;;;;;;;28.21;40.32;97234.13;5032082;28;1049;-54
2021/08/02 08:42:34;;;;;;;;;;;;;;;28.14;40.89;97244.47;5028311;28;1670;-53
2021/08/02 08:45:00;;;;;;;;;;;;;;;28.54;39.69;97246.03;5029307;28;1542;-54
2021/08/02 08:47:25;;;;;;;;;;;;;;;28.33;40.09;97243.59;5031244;28;1101;-54
2021/08/02 08:49:50;;;;;;;;;;;;;;;28.21;40.73;97239.44;5025506;28;1495;-55
2021/08/02 08:52:15;;;;;;;;;;;;;;;27.94;41.29;97249.00;5028736;28;1558;-55
2021/08/02 08:54:42;;;;;;;;;;;;;;;28.00;40.93;97239.63;5028672;28;1939;-55
2021/08/02 08:57:08;;;;;;;;;;;;;;;27.71;41.64;97237.88;5029575;28;1562;-54
2021/08/02 08:59:43;;;;;;;;;;;;;;;27.95;40.80;97245.34;5029800;28;1136;-54
2021/08/02 09:02:08;;;;;;;;;;;;;;;27.81;40.96;97249.31;5029055;28;1352;-54
2021/08/02 09:04:33;;;;;;;;;;;;;;;27.84;40.92;97247.34;5030317;28;1543;-53
2021/08/02 09:07:00;;;;;;;;;;;;;;;28.26;39.88;97245.13;5028081;28;1176;-55
2021/08/02 09:09:33;;;;;;;;;;;;;;;28.34;40.02;97250.56;5030212;28;1157;-55
2021/08/02 09:12:02;;;;;;;;;;;;;;;27.96;40.80;97247.03;5041489;28;1595;-52
2021/08/02 09:14:27;;;;;;;;;;;;;;;27.79;41.06;97240.66;5028714;28;1906;-54
2021/08/02 09:16:55;;;;;;;;;;;;;;;27.86;41.05;97242.72;5027211;28;1697;-54
2021/08/02 09:19:20;;;;;;;;;;;;;;;28.17;40.28;97238.03;5028238;28;1674;-54
2021/08/02 09:21:46;;;;;;;;;;;;;;;27.96;40.92;97241.72;5028221;28;1260;-51
2021/08/02 09:24:11;;;;;;;;;;;;;;;27.90;40.98;97247.63;5029574;28;1244;-53
2021/08/02 09:26:37;;;;;;;;;;;;;;;27.80;41.33;97249.44;5028070;28;1530;-52
2021/08/02 09:29:03;;;;;;;;;;;;;;;27.89;40.91;97253.91;5031252;28;1370;-54
2021/08/02 09:31:32;;;;;;;;;;;;;;;27.91;41.08;97249.28;5032300;28;1421;-52
2021/08/02 09:33:59;;;;;;;;;;;;;;;27.83;41.37;97253.63;5029873;28;1967;-53
2021/08/02 09:36:24;;;;;;;;;;;;;;;27.79;41.08;97251.25;5029480;28;1319;-53
2021/08/02 09:38:53;;;;;;;;;;;;;;;27.81;41.14;97253.78;5028216;28;2220;-53
2021/08/02 09:41:20;;;;;;;;;;;;;;;27.87;41.14;97257.66;5027722;28;1523;-54
2021/08/02 09:43:48;;;;;;;;;;;;;;;27.96;40.75;97256.78;5025615;28;1626;-51
2021/08/02 09:46:14;;;;;;;;;;;;;;;27.90;41.23;97254.72;5024766;28;1286;-54
2021/08/02 09:48:40;;;;;;;;;;;;;;;28.00;40.79;97261.69;5021410;28;1075;-55
2021/08/02 09:51:09;;;;;;;;;;;;;;;28.11;40.67;97260.66;5020331;28;1709;-54
2021/08/02 09:53:38;;;;;;;;;;;;;;;27.99;40.81;97261.81;5027567;28;1152;-55
2021/08/02 09:56:03;;;;;;;;;;;;;;;28.39;39.88;97253.63;5027377;28;1902;-54
2021/08/02 09:58:28;;;;;;;;;;;;;;;27.96;41.06;97260.28;5028137;28;1230;-54
2021/08/02 10:00:54;;;;;;;;;;;;;;;28.19;40.75;97262.59;5028517;28;1188;-55
2021/08/02 10:03:19;;;;;;;;;;;;;;;28.10;40.67;97259.00;5024609;28;1602;-53
2021/08/02 10:05:44;;;;;;;;;;;;;;;27.95;41.15;97257.78;5027656;28;1330;-55
2021/08/02 10:08:10;;;;;;;;;;;;;;;27.99;41.18;97260.00;5027867;28;1428;-53
2021/08/02 10:10:35;;;;;;;;;;;;;;;28.09;40.67;97258.16;5027752;28;1611;-53
2021/08/02 10:13:00;;;;;;;;;;;;;;;28.14;40.55;97260.38;5026271;28;1539;-55
2021/08/02 10:15:29;;;;;;;;;;;;;;;28.15;40.73;97262.06;5025480;28;1946;-55
2021/08/02 10:17:55;;;;;;;;;;;;;;;28.06;40.58;97254.97;5023230;28;1081;-55
2021/08/02 10:20:29;;;;;;;;;;;;;;;28.16;40.42;97263.72;5128283;27;1549;-53
2021/08/02 10:22:54;;;;;;;;;;;;;;;28.09;40.78;97262.63;5127265;27;1303;-55
2021/08/02 10:25:33;;;;;;;;;;;;;;;28.08;40.60;97259.16;5133093;27;1250;-52
2021/08/02 10:28:08;;;;;;;;;;;;;;;28.07;40.80;97261.94;5134746;27;1332;-54
2021/08/02 10:30:33;;;;;;;;;;;;;;;27.95;40.51;97255.97;5132273;27;1589;-54
2021/08/02 10:32:58;;;;;;;;;;;;;;;28.10;40.49;97259.81;5134721;27;1408;-54
2021/08/02 10:35:33;;;;;;;;;;;;;;;28.06;40.50;97258.47;5135918;27;1320;-55
2021/08/02 10:38:03;;;;;;;;;;;;;;;28.09;40.46;97259.97;5135982;27;1518;-54
2021/08/02 10:40:28;;;;;;;;;;;;;;;28.10;40.40;97259.81;5136054;27;1640;-52
2021/08/02 10:42:53;;;;;;;;;;;;;;;28.16;40.08;97250.47;5130643;27;1412;-52
2021/08/02 10:45:28;;;;;;;;;;;;;;;28.22;40.18;97249.06;5126976;27;1189;-54
2021/08/02 10:47:53;;;;;;;;;;;;;;;28.29;40.09;97244.84;5129582;27;1043;-54
2021/08/02 10:50:25;;;;;;;;;;;;;;;28.20;40.04;97243.91;5129532;27;1550;-54
2021/08/02 10:52:50;;;;;;;;;;;;;;;28.20;40.18;97241.25;5130326;27;2082;-54
2021/08/02 10:55:16;;;;;;;;;;;;;;;28.25;40.01;97232.84;5136470;27;1190;-55
2021/08/02 10:57:41;;;;;;;;;;;;;;;28.30;40.08;97235.94;5131882;27;1824;-54
2021/08/02 11:00:27;;;;;;;;;;;;;;;28.30;39.89;97228.81;5135642;27;2042;-54
2021/08/02 11:02:53;;;;;;;;;;;;;;;28.19;40.38;97233.44;5132496;27;1710;-55
2021/08/02 11:05:19;;;;;;;;;;;;;;;28.23;40.17;97222.41;5134482;27;1225;-54
2021/08/02 11:07:45;;;;;;;;;;;;;;;28.20;40.25;97221.84;5133140;27;1601;-53
2021/08/02 11:10:10;;;;;;;;;;;;;;;28.26;40.08;97226.56;5135871;27;1073;-54
2021/08/02 11:12:45;;;;;;;;;;;;;;;28.20;40.26;97224.50;5128730;27;1644;-54
2021/08/02 11:15:10;;;;;;;;;;;;;;;28.16;40.40;97225.78;5135118;27;1095;-55
2021/08/02 11:17:35;;;;;;;;;;;;;;;28.14;40.42;97217.13;5136219;27;1177;-54
2021/08/02 11:20:02;;;;;;;;;;;;;;;28.30;40.11;97217.38;5133995;27;1998;-54
2021/08/02 11:22:27;;;;;;;;;;;;;;;28.28;40.07;97224.59;5131431;27;1589;-55
2021/08/02 11:24:53;;;;;;;;;;;;;;;28.26;40.03;97215.97;5134352;27;1241;-55
2021/08/02 11:27:18;;;;;;;;;;;;;;;28.31;39.88;97211.94;5131612;27;1606;-54
2021/08/02 11:29:45;;;;;;;;;;;;;;;28.32;40.05;97210.09;5132854;27;1475;-54
2021/08/02 11:32:11;;;;;;;;;;;;;;;28.25;40.20;97219.59;5118440;27;1564;-55
2021/08/02 11:34:36;;;;;;;;;;;;;;;28.15;40.38;97200.25;5118491;27;1138;-55
2021/08/02 11:37:03;;;;;;;;;;;;;;;28.34;40.03;97208.13;5119359;27;1387;-54
2021/08/02 11:39:28;;;;;;;;;;;;;;;28.30;40.06;97201.47;5117383;27;1971;-52
2021/08/02 11:42:03;;;;;;;;;;;;;;;28.13;40.61;97199.56;5116641;27;1546;-53
2021/08/02 11:44:28;;;;;;;;;;;;;;;28.22;40.36;97198.69;5117399;27;1838;-54
2021/08/02 11:46:54;;;;;;;;;;;;;;;28.14;40.26;97196.75;5120590;27;1186;-55
2021/08/02 11:49:19;;;;;;;;;;;;;;;28.15;40.19;97200.25;5114365;27;1625;-54
2021/08/02 11:51:44;;;;;;;;;;;;;;;28.21;40.36;97197.84;5121166;27;1405;-54
2021/08/02 11:54:19;;;;;;;;;;;;;;;28.17;40.44;97201.75;5117708;27;1443;-52
2021/08/02 11:56:44;;;;;;;;;;;;;;;28.23;40.48;97200.34;5117900;27;1617;-55
2021/08/02 11:59:17;;;;;;;;;;;;;;;28.22;40.06;97203.97;5120686;27;1898;-52
2021/08/02 12:01:46;;;;;;;;;;;;;;;28.14;40.39;97199.41;5119206;27;1617;-52
2021/08/02 12:04:11;;;;;;;;;;;;;;;28.21;40.32;97199.66;5119487;27;1087;-52
2021/08/02 12:06:45;;;;;;;;;;;;;;;28.19;40.29;97193.66;5115404;27;1338;-53
2021/08/02 12:09:10;;;;;;;;;;;;;;;28.21;40.35;97199.66;5116825;27;1597;-52
2021/08/02 12:11:40;;;;;;;;;;;;;;;28.12;40.61;97184.59;5117115;27;1591;-53
2021/08/02 12:14:05;;;;;;;;;;;;;;;28.29;40.21;97197.13;5120466;27;1181;-52
2021/08/02 12:16:30;;;;;;;;;;;;;;;28.26;40.09;97194.75;5116909;27;1383;-53
2021/08/02 12:19:06;;;;;;;;;;;;;;;28.23;40.60;97190.56;5117967;27;1917;-52
2021/08/02 12:21:32;;;;;;;;;;;;;;;28.18;40.43;97184.88;5117945;27;1420;-52
2021/08/02 12:24:16;;;;;;;;;;;;;;;28.27;40.28;97191.09;5121315;27;1071;-55
2021/08/02 12:26:51;;;;;;;;;;;;;;;28.40;40.23;97189.00;5114475;27;1613;-53
2021/08/02 12:29:22;;;;;;;;;;;;;;;28.36;40.08;97190.28;5120833;27;1218;-53
2021/08/02 12:31:57;;;;;;;;;;;;;;;28.25;40.29;97190.41;5120205;27;1315;-54
2021/08/02 12:34:22;;;;;;;;;;;;;;;28.35;40.05;97193.88;5121036;27;1617;-54
2021/08/02 12:36:47;;;;;;;;;;;;;;;28.31;40.20;97193.38;5118069;27;1056;-51
2021/08/02 12:39:12;;;;;;;;;;;;;;;28.33;40.11;97182.59;5116757;27;1941;-54
2021/08/02 12:41:38;;;;;;;;;;;;;;;27.11;43.24;97180.78;5117029;27;1692;-52
2021/08/02 12:44:03;;;;;;;;;;;;;;;27.87;41.35;97188.75;5121325;27;1119;-54
2021/08/02 12:46:28;;;;;;;;;;;;;;;27.87;41.54;97186.09;5117297;27;1467;-53
2021/08/02 12:48:54;;;;;;;;;;;;;;;28.30;40.53;97182.91;5119281;27;1191;-53
2021/08/02 12:51:19;;;;;;;;;;;;;;;28.23;40.44;97185.28;5115436;27;1544;-54
2021/08/02 12:53:45;;;;;;;;;;;;;;;28.30;40.53;97188.22;5121735;27;1123;-52
2021/08/02 12:56:10;;;;;;;;;;;;;;;28.31;40.45;97181.91;5117976;27;1506;-52